createdAt,value
2018-07-20T00:01:10.447Z,89.40
2018-07-20T00:05:04.654Z,89.00
2018-07-20T00:08:58.665Z,88.90
2018-07-20T00:12:52.945Z,89.30
2018-07-20T00:16:47.048Z,90.10
2018-07-20T00:20:40.443Z,90.40
2018-07-20T00:24:34.438Z,90.70
2018-07-20T00:28:28.508Z,91.10
2018-07-20T00:32:22.429Z,91.70
2018-07-20T00:36:16.348Z,91.70
2018-07-20T00:40:10.856Z,92.10
2018-07-20T00:44:04.841Z,92.50
2018-07-20T00:47:58.862Z,92.50
2018-07-20T00:51:52.827Z,92.50
2018-07-20T00:55:46.834Z,92.80
2018-07-20T00:59:40.822Z,92.80
2018-07-20T01:03:34.863Z,93.00
2018-07-20T01:07:28.824Z,93.20
2018-07-20T01:11:22.814Z,93.50
2018-07-20T01:15:16.850Z,93.70
2018-07-20T01:19:11.010Z,94.10
2018-07-20T01:23:05.566Z,94.60
2018-07-20T01:26:58.950Z,95.10
2018-07-20T01:30:52.835Z,95.60
2018-07-20T01:34:47.328Z,95.90
2018-07-20T01:38:41.235Z,96.20
2018-07-20T01:42:35.126Z,96.30
2018-07-20T01:46:29.063Z,96.40
2018-07-20T01:50:22.989Z,96.30
2018-07-20T01:54:16.943Z,96.20
2018-07-20T01:58:10.876Z,96.20
2018-07-20T02:02:04.937Z,96.10
2018-07-20T02:05:59.034Z,96.30
2018-07-20T02:09:53.041Z,96.40
2018-07-20T02:13:47.031Z,96.30
2018-07-20T02:17:40.957Z,96.30
2018-07-20T02:21:34.430Z,96.30
2018-07-20T02:25:28.345Z,96.40
2018-07-20T02:29:22.316Z,96.70
2018-07-20T02:33:16.291Z,97.00
2018-07-20T02:37:10.414Z,97.40
2018-07-20T02:41:04.426Z,97.80
2018-07-20T02:44:58.327Z,98.20
2018-07-20T02:48:52.241Z,98.40
2018-07-20T02:52:46.290Z,98.80
2018-07-20T02:56:40.292Z,99.30
2018-07-20T03:00:34.231Z,99.50
2018-07-20T03:04:28.199Z,99.60
2018-07-20T03:08:22.076Z,99.90
2018-07-20T03:12:16.104Z,99.90
2018-07-20T03:16:10.074Z,99.90
2018-07-20T03:20:03.482Z,99.90
2018-07-20T03:23:57.491Z,99.90
2018-07-20T03:27:51.465Z,99.90
2018-07-20T03:31:45.402Z,99.90
2018-07-20T03:35:39.377Z,99.90
2018-07-20T03:43:26.830Z,99.90
2018-07-20T03:51:14.554Z,99.90
2018-07-20T03:59:31.138Z,99.90
2018-07-20T04:03:25.063Z,99.90
2018-07-20T04:07:19.867Z,99.90
2018-07-20T04:11:13.724Z,99.90
2018-07-20T04:15:07.783Z,99.90
2018-07-20T04:19:01.180Z,99.50
2018-07-20T04:22:55.249Z,99.30
2018-07-20T04:26:49.246Z,99.30
2018-07-20T04:30:43.170Z,99.50
2018-07-20T04:34:37.138Z,99.20
2018-07-20T04:38:31.017Z,99.60
2018-07-20T04:42:25.017Z,99.40
2018-07-20T04:46:18.950Z,99.90
2018-07-20T04:58:00.206Z,96.00
2018-07-20T05:01:54.195Z,92.50
2018-07-20T05:05:48.445Z,89.90
2018-07-20T05:09:42.637Z,89.20
2018-07-20T05:13:37.030Z,90.00
2018-07-20T05:17:30.883Z,91.00
2018-07-20T05:21:24.913Z,92.00
2018-07-20T05:25:18.317Z,93.10
2018-07-20T05:29:12.291Z,93.50
2018-07-20T05:33:06.330Z,93.60
2018-07-20T05:37:00.360Z,92.90
2018-07-20T05:40:54.497Z,92.00
2018-07-20T05:44:48.443Z,91.30
2018-07-20T05:48:43.577Z,90.70
2018-07-20T05:52:37.574Z,89.50
2018-07-20T05:56:31.501Z,88.80
2018-07-20T06:00:25.600Z,88.20
2018-07-20T06:04:19.806Z,88.80
2018-07-20T06:08:13.926Z,88.40
2018-07-20T06:12:08.138Z,88.30
2018-07-20T06:16:02.736Z,88.20
2018-07-20T06:19:57.108Z,87.90
2018-07-20T06:23:51.725Z,87.00
2018-07-20T06:27:46.128Z,86.30
2018-07-20T06:31:43.937Z,84.90
2018-07-20T06:35:39.012Z,83.00
2018-07-20T06:39:33.752Z,81.30
2018-07-20T06:43:28.189Z,80.30
2018-07-20T06:47:22.399Z,79.70
2018-07-20T06:51:16.526Z,78.20
2018-07-20T06:55:11.321Z,75.80
2018-07-20T06:59:05.471Z,73.60
2018-07-20T07:02:59.565Z,72.00
2018-07-20T07:06:54.685Z,72.40
2018-07-20T07:10:48.753Z,72.90
2018-07-20T07:14:43.005Z,72.80
2018-07-20T07:18:36.651Z,72.00
2018-07-20T07:22:31.918Z,71.10
2018-07-20T07:26:29.566Z,70.70
2018-07-20T07:30:25.495Z,69.80
2018-07-20T07:34:22.515Z,69.70
2018-07-20T07:38:16.891Z,70.00
2018-07-20T07:46:07.185Z,70.30
2018-07-20T07:50:01.941Z,67.40
2018-07-20T07:53:56.505Z,66.80
2018-07-20T07:57:52.231Z,68.10
2018-07-20T08:01:46.917Z,67.50
2018-07-20T08:05:41.901Z,67.20
2018-07-20T08:09:36.161Z,67.50
2018-07-20T08:13:30.293Z,66.60
2018-07-20T08:17:24.202Z,66.60
2018-07-20T08:21:18.302Z,65.70
2018-07-20T08:25:11.712Z,63.20
2018-07-20T08:29:05.745Z,61.90
2018-07-20T08:32:59.710Z,61.30
2018-07-20T08:36:53.613Z,61.40
2018-07-20T08:40:47.597Z,61.00
2018-07-20T08:44:41.550Z,60.00
2018-07-20T08:48:37.158Z,59.60
2018-07-20T08:52:31.065Z,58.80
2018-07-20T08:56:25.112Z,58.30
2018-07-20T09:00:19.073Z,57.90
2018-07-20T09:04:12.996Z,56.60
2018-07-20T09:08:07.040Z,56.00
2018-07-20T09:12:00.999Z,56.10
2018-07-20T09:15:55.059Z,55.30
2018-07-20T09:19:49.022Z,54.80
2018-07-20T09:23:42.506Z,54.70
2018-07-20T09:27:36.546Z,54.30
2018-07-20T09:31:30.539Z,54.60
2018-07-20T09:35:24.586Z,54.60
2018-07-20T09:39:18.784Z,54.20
2018-07-20T09:43:12.911Z,54.20
2018-07-20T09:47:06.993Z,53.90
2018-07-20T09:51:00.975Z,53.70
2018-07-20T09:54:54.971Z,53.90
2018-07-20T09:58:48.971Z,53.50
2018-07-20T10:02:42.987Z,53.20
2018-07-20T10:06:37.516Z,53.50
2018-07-20T10:10:31.496Z,53.40
2018-07-20T10:14:25.743Z,53.40
2018-07-20T10:18:19.984Z,54.00
2018-07-20T10:22:14.243Z,53.80
2018-07-20T10:26:08.398Z,53.30
2018-07-20T10:30:02.005Z,53.30
2018-07-20T10:33:57.386Z,53.00
2018-07-20T10:37:51.643Z,52.90
2018-07-20T10:41:45.683Z,52.30
2018-07-20T10:45:39.639Z,52.20
2018-07-20T10:49:33.799Z,51.60
2018-07-20T10:53:28.539Z,51.80
2018-07-20T10:57:22.903Z,51.30
2018-07-20T11:01:17.712Z,51.20
2018-07-20T11:05:11.720Z,51.10
2018-07-20T11:09:07.550Z,50.80
2018-07-20T11:13:01.487Z,50.90
2018-07-20T11:16:55.408Z,50.40
2018-07-20T11:20:48.896Z,50.70
2018-07-20T11:24:42.834Z,50.40
2018-07-20T11:28:36.792Z,49.70
2018-07-20T11:32:30.748Z,49.90
2018-07-20T11:36:24.822Z,50.40
2018-07-20T11:40:18.924Z,51.10
2018-07-20T11:44:12.931Z,50.20
2018-07-20T11:48:08.156Z,50.50
2018-07-20T11:52:02.169Z,49.80
2018-07-20T11:55:56.178Z,49.50
2018-07-20T11:59:50.142Z,49.50
2018-07-20T12:03:44.278Z,49.60
2018-07-20T12:07:38.280Z,48.90
2018-07-20T12:11:32.395Z,48.50
2018-07-20T12:15:26.349Z,47.50
2018-07-20T12:19:20.191Z,47.60
2018-07-20T12:23:15.411Z,47.50
2018-07-20T12:27:09.802Z,47.60
2018-07-20T12:31:03.889Z,47.50
2018-07-20T12:34:58.254Z,46.10
2018-07-20T12:38:53.123Z,45.70
2018-07-20T12:42:47.193Z,45.50
2018-07-20T12:46:41.275Z,45.30
2018-07-20T12:50:36.164Z,44.50
2018-07-20T12:54:30.141Z,44.20
2018-07-20T12:58:24.205Z,43.80
2018-07-20T13:06:11.788Z,43.50
2018-07-20T13:10:06.094Z,43.50
2018-07-20T13:14:00.120Z,43.30
2018-07-20T13:17:54.084Z,43.20
2018-07-20T13:21:47.472Z,42.80
2018-07-20T13:25:41.414Z,42.70
2018-07-20T13:29:35.620Z,43.00
2018-07-20T13:33:29.678Z,42.70
2018-07-20T13:37:23.736Z,43.00
2018-07-20T13:41:17.787Z,42.80
2018-07-20T13:45:11.805Z,42.50
2018-07-20T13:49:06.109Z,42.50
2018-07-20T13:53:00.081Z,42.10
2018-07-20T13:56:53.999Z,42.10
2018-07-20T14:00:48.936Z,41.20
2018-07-20T14:04:45.056Z,39.00
2018-07-20T14:08:40.794Z,37.90
2018-07-20T14:12:34.877Z,39.00
2018-07-20T14:16:28.886Z,38.50
2018-07-20T14:20:22.345Z,38.20
2018-07-20T14:28:10.171Z,38.90
2018-07-20T14:32:04.200Z,39.40
2018-07-20T14:39:56.466Z,39.40
2018-07-20T14:43:51.323Z,39.80
2018-07-20T14:47:45.390Z,40.00
2018-07-20T14:51:39.536Z,39.60
2018-07-20T14:55:33.734Z,40.40
2018-07-20T14:59:27.704Z,40.10
2018-07-20T15:03:21.786Z,39.60
2018-07-20T15:07:16.455Z,39.30
2018-07-20T15:11:10.650Z,39.30
2018-07-20T15:15:05.225Z,39.10
2018-07-20T15:18:59.633Z,39.30
2018-07-20T15:22:53.362Z,39.10
2018-07-20T15:26:46.214Z,38.40
2018-07-20T15:34:33.727Z,38.10
2018-07-20T15:38:27.815Z,38.00
2018-07-20T15:42:21.847Z,38.00
2018-07-20T15:46:15.875Z,38.00
2018-07-20T15:50:09.815Z,37.60
2018-07-20T15:54:03.820Z,38.00
2018-07-20T15:57:57.782Z,37.50
2018-07-20T16:01:51.746Z,36.90
2018-07-20T16:05:45.738Z,36.50
2018-07-20T16:09:40.058Z,36.40
2018-07-20T16:13:34.008Z,36.20
2018-07-20T16:17:28.084Z,36.10
2018-07-20T16:21:21.826Z,36.30
2018-07-20T16:25:15.941Z,36.40
2018-07-20T16:29:10.024Z,36.00
2018-07-20T16:33:04.280Z,35.30
2018-07-20T16:36:58.933Z,34.90
2018-07-20T16:40:53.759Z,34.70
2018-07-20T16:44:47.888Z,35.00
2018-07-20T16:48:43.021Z,33.80
2018-07-20T16:52:37.762Z,34.50
2018-07-20T16:56:31.881Z,35.60
2018-07-20T17:00:25.843Z,35.50
2018-07-20T17:08:13.524Z,34.80
2018-07-20T17:12:08.022Z,35.10
2018-07-20T17:16:02.092Z,35.30
2018-07-20T17:19:55.604Z,35.40
2018-07-20T17:23:49.649Z,36.10
2018-07-20T17:27:44.168Z,36.00
2018-07-20T17:31:38.227Z,36.50
2018-07-20T17:35:32.437Z,36.40
2018-07-20T17:39:26.619Z,36.60
2018-07-20T17:43:20.714Z,37.10
2018-07-20T17:47:14.739Z,37.30
2018-07-20T17:51:09.112Z,37.20
2018-07-20T17:55:03.484Z,37.50
2018-07-20T17:58:58.029Z,37.60
2018-07-20T18:02:52.167Z,38.30
2018-07-20T18:06:46.323Z,38.80
2018-07-20T18:10:40.569Z,39.50
2018-07-20T18:14:34.484Z,40.10
2018-07-20T18:18:29.511Z,41.00
2018-07-20T18:22:22.994Z,41.50
2018-07-20T18:26:17.025Z,42.00
2018-07-20T18:30:11.145Z,42.30
2018-07-20T18:34:05.164Z,42.60
2018-07-20T18:41:52.786Z,43.50
2018-07-20T18:49:40.402Z,44.50
2018-07-20T18:53:34.566Z,45.20
2018-07-20T18:57:28.661Z,45.80
2018-07-20T19:01:22.641Z,46.30
2018-07-20T19:09:11.988Z,47.30
2018-07-20T19:13:06.033Z,47.50
2018-07-20T19:17:00.167Z,47.90
2018-07-20T19:20:53.524Z,48.00
2018-07-20T19:24:47.542Z,48.40
2018-07-20T19:28:41.592Z,48.50
2018-07-20T19:32:35.585Z,48.70
2018-07-20T19:36:29.450Z,48.90
2018-07-20T19:40:23.481Z,49.30
2018-07-20T19:44:17.360Z,49.30
2018-07-20T19:48:11.292Z,49.40
2018-07-20T19:52:05.301Z,49.70
2018-07-20T19:55:59.221Z,50.00
2018-07-20T19:59:53.227Z,50.20
2018-07-20T20:03:47.222Z,50.50
2018-07-20T20:07:41.150Z,51.00
2018-07-20T20:11:35.112Z,51.90
2018-07-20T20:15:29.078Z,51.90
2018-07-20T20:19:22.466Z,52.60
2018-07-20T20:23:16.376Z,54.20
2018-07-20T20:27:10.303Z,57.00
2018-07-20T20:31:04.349Z,59.30
2018-07-20T20:34:58.281Z,59.20
2018-07-20T20:38:52.239Z,58.50
2018-07-20T20:42:46.144Z,63.30
2018-07-20T20:46:40.558Z,66.60
2018-07-20T20:50:34.579Z,81.50
2018-07-20T20:54:28.499Z,90.90
2018-07-20T20:58:23.162Z,97.30
2018-07-20T21:02:17.086Z,96.00
2018-07-20T21:06:11.044Z,98.60
2018-07-20T21:10:05.435Z,98.60
2018-07-20T21:13:59.331Z,98.60
2018-07-20T21:17:53.294Z,98.80
2018-07-20T21:21:47.250Z,98.50
2018-07-20T21:25:41.290Z,98.70
2018-07-20T21:29:34.647Z,98.90
2018-07-20T21:33:28.530Z,99.80
2018-07-20T21:37:22.444Z,99.90
2018-07-20T21:41:16.479Z,99.90
2018-07-20T21:45:10.510Z,98.20
2018-07-20T21:49:04.523Z,97.60
2018-07-20T21:52:58.487Z,99.20
2018-07-20T21:56:52.419Z,99.70
2018-07-20T22:00:46.338Z,99.60
2018-07-20T22:04:40.385Z,97.40
2018-07-20T22:08:34.287Z,97.20
2018-07-20T22:12:29.127Z,97.70
2018-07-20T22:16:23.077Z,98.40
2018-07-20T22:20:16.493Z,98.10
2018-07-20T22:24:10.368Z,98.50
2018-07-20T22:28:04.299Z,98.00
2018-07-20T22:31:58.208Z,96.10
2018-07-20T22:35:52.118Z,95.90
2018-07-20T22:39:46.077Z,95.30
2018-07-20T22:43:39.967Z,96.00
2018-07-20T22:47:33.865Z,95.60
2018-07-20T22:51:28.711Z,96.40
2018-07-20T22:55:22.635Z,96.80
2018-07-20T22:59:16.566Z,96.90
2018-07-20T23:03:10.438Z,96.10
2018-07-20T23:07:04.322Z,97.00
2018-07-20T23:10:58.309Z,95.90
2018-07-20T23:14:52.263Z,95.80
2018-07-20T23:18:46.230Z,94.50
2018-07-20T23:22:39.751Z,95.00
2018-07-20T23:26:33.650Z,96.10
2018-07-20T23:30:27.543Z,96.10
2018-07-20T23:34:21.470Z,96.00
2018-07-20T23:38:15.358Z,96.30
2018-07-20T23:42:09.266Z,96.70
2018-07-20T23:46:03.150Z,96.50
2018-07-20T23:53:50.540Z,99.90
2018-07-20T23:57:44.738Z,99.90
